createdAt,value
2023-03-08T00:00:11.059Z,-0.30
2023-03-08T00:05:13.838Z,-0.29
2023-03-08T00:10:18.638Z,-0.22
2023-03-08T00:15:21.352Z,-0.42
2023-03-08T00:20:30.595Z,-0.75
2023-03-08T00:52:57.085Z,-0.76
2023-03-08T00:57:59.920Z,-0.60
2023-03-08T01:03:02.887Z,-0.41
2023-03-08T01:08:07.335Z,-0.50
2023-03-08T01:13:10.597Z,-0.28
2023-03-08T01:18:14.091Z,-0.29
2023-03-08T01:23:18.251Z,-0.16
2023-03-08T01:28:21.065Z,-0.39
2023-03-08T01:33:25.092Z,-0.21
2023-03-08T01:38:29.320Z,-0.50
2023-03-08T01:43:34.004Z,-0.22
2023-03-08T01:48:41.897Z,-0.25
2023-03-08T01:53:50.065Z,-0.15
2023-03-08T01:58:53.602Z,-0.20
2023-03-08T02:03:56.916Z,-0.34
2023-03-08T02:09:05.049Z,-0.16
2023-03-08T02:14:08.052Z,-0.40
2023-03-08T02:19:18.401Z,-0.81
2023-03-08T02:24:25.814Z,-0.68
2023-03-08T02:29:28.669Z,-0.40
2023-03-08T02:34:31.562Z,-0.45
2023-03-08T02:39:36.141Z,-0.56
2023-03-08T02:44:38.916Z,-0.51
2023-03-08T02:49:41.753Z,-0.44
2023-03-08T02:54:47.324Z,-0.33
2023-03-08T02:59:50.168Z,-0.23
2023-03-08T03:04:53.332Z,-0.25
2023-03-08T03:09:57.965Z,-0.63
2023-03-08T03:15:02.278Z,-0.54
2023-03-08T03:20:06.445Z,-0.33
2023-03-08T03:25:10.871Z,-0.52
2023-03-08T03:30:14.304Z,-0.81
2023-03-08T03:35:17.283Z,-0.50
2023-03-08T03:40:21.718Z,-0.56
2023-03-08T03:45:30.227Z,-1.02
2023-03-08T03:50:33.488Z,-0.57
2023-03-08T03:55:43.309Z,-0.61
2023-03-08T04:00:46.674Z,-0.57
2023-03-08T04:06:06.957Z,-0.57
2023-03-08T04:11:14.636Z,-0.84
2023-03-08T04:16:19.872Z,-0.56
2023-03-08T04:21:24.121Z,-0.38
2023-03-08T04:26:29.633Z,-0.51
2023-03-08T04:31:34.832Z,-0.75
2023-03-08T04:36:41.205Z,-0.76
2023-03-08T04:41:46.851Z,-0.90
2023-03-08T04:46:58.762Z,-0.82
2023-03-08T04:52:15.803Z,-0.93
2023-03-08T04:57:21.258Z,-1.06
2023-03-08T05:02:26.202Z,-0.70
2023-03-08T05:07:29.154Z,-0.51
2023-03-08T05:12:37.190Z,-0.63
2023-03-08T05:17:40.516Z,-0.73
2023-03-08T05:22:57.277Z,-0.64
2023-03-08T05:28:05.740Z,-0.67
2023-03-08T05:33:08.902Z,-0.67
2023-03-08T05:38:12.058Z,-0.77
2023-03-08T05:43:16.402Z,-0.46
2023-03-08T05:48:19.598Z,-0.36
2023-03-08T05:53:23.570Z,-0.43
2023-03-08T05:58:27.996Z,-0.37
2023-03-08T06:03:30.892Z,-0.28
2023-03-08T06:08:33.924Z,-0.28
2023-03-08T06:13:38.428Z,-0.19
2023-03-08T06:18:42.829Z,-0.18
2023-03-08T06:23:48.716Z,-0.17
2023-03-08T06:28:52.954Z,-0.10
2023-03-08T06:33:56.547Z,-0.02
2023-03-08T06:39:02.241Z,-0.04
2023-03-08T06:44:06.693Z,-0.07
2023-03-08T06:49:09.561Z,-0.03
2023-03-08T06:54:17.531Z,0.06
2023-03-08T06:59:23.431Z,0.08
2023-03-08T07:04:26.297Z,0.09
2023-03-08T07:09:29.197Z,0.15
2023-03-08T07:14:33.363Z,0.23
2023-03-08T07:19:36.148Z,0.60
2023-03-08T07:24:39.165Z,0.72
2023-03-08T07:29:43.319Z,0.85
2023-03-08T07:34:46.383Z,0.97
2023-03-08T07:39:49.223Z,1.01
2023-03-08T07:44:53.338Z,0.89
2023-03-08T07:49:56.134Z,0.85
2023-03-08T07:54:59.169Z,0.86
2023-03-08T08:00:07.368Z,0.86
2023-03-08T08:05:15.051Z,0.98
2023-03-08T08:10:18.399Z,1.04
2023-03-08T08:15:25.201Z,1.09
2023-03-08T08:20:28.395Z,1.04
2023-03-08T08:25:31.126Z,1.15
2023-03-08T08:30:35.260Z,1.24
2023-03-08T08:35:43.385Z,1.26
2023-03-08T08:40:46.808Z,1.28
2023-03-08T08:45:55.839Z,1.20
2023-03-08T08:50:59.523Z,1.38
2023-03-08T08:56:23.825Z,1.53
2023-03-08T09:01:32.521Z,1.53
2023-03-08T09:06:35.309Z,1.25
2023-03-08T09:11:53.392Z,1.39
2023-03-08T09:16:58.698Z,1.42
2023-03-08T09:22:01.523Z,1.37
2023-03-08T09:27:06.142Z,1.27
2023-03-08T09:32:10.600Z,1.40
2023-03-08T09:37:13.773Z,1.60
2023-03-08T09:42:23.426Z,1.80
2023-03-08T09:47:48.176Z,1.62
2023-03-08T09:52:57.162Z,1.54
2023-03-08T09:58:03.092Z,1.57
2023-03-08T10:03:25.876Z,1.64
2023-03-08T10:08:36.060Z,1.64
2023-03-08T10:13:40.912Z,1.53
2023-03-08T10:18:50.488Z,1.91
2023-03-08T10:23:59.857Z,1.79
2023-03-08T10:29:02.602Z,1.78
2023-03-08T10:34:13.529Z,1.24
2023-03-08T10:39:17.335Z,1.78
2023-03-08T10:44:33.627Z,1.75
2023-03-08T10:49:37.934Z,1.82
2023-03-08T10:54:40.746Z,1.81
2023-03-08T10:59:51.118Z,2.00
2023-03-08T11:04:58.399Z,2.21
2023-03-08T11:10:19.911Z,2.07
2023-03-08T11:15:22.762Z,2.32
2023-03-08T11:20:32.886Z,2.74
2023-03-08T11:25:43.266Z,2.63
2023-03-08T11:30:56.746Z,1.89
2023-03-08T11:36:07.006Z,2.53
2023-03-08T11:41:24.756Z,2.82
2023-03-08T11:46:33.821Z,3.23
2023-03-08T11:51:45.167Z,2.91
2023-03-08T11:56:54.739Z,3.31
2023-03-08T12:02:03.133Z,3.05
2023-03-08T12:07:14.050Z,2.62
2023-03-08T12:12:22.554Z,1.62
2023-03-08T12:17:29.748Z,1.79
2023-03-08T12:22:46.331Z,1.88
2023-03-08T12:27:54.781Z,2.08
2023-03-08T12:33:00.221Z,2.12
2023-03-08T12:38:07.493Z,1.99
2023-03-08T12:43:13.278Z,1.94
2023-03-08T12:48:24.057Z,1.82
2023-03-08T12:53:34.384Z,1.90
2023-03-08T12:58:41.212Z,1.87
2023-03-08T13:03:44.051Z,2.04
2023-03-08T13:08:54.106Z,2.01
2023-03-08T13:14:01.464Z,2.05
2023-03-08T13:19:19.066Z,1.92
2023-03-08T13:24:36.554Z,2.19
2023-03-08T13:29:40.335Z,2.00
2023-03-08T13:34:45.497Z,2.03
2023-03-08T13:39:54.085Z,2.00
2023-03-08T13:45:09.236Z,1.84
2023-03-08T13:50:19.420Z,1.76
2023-03-08T13:55:30.936Z,1.77
2023-03-08T14:00:35.520Z,1.82
2023-03-08T14:05:43.679Z,1.94
2023-03-08T14:10:51.074Z,1.91
2023-03-08T14:15:56.922Z,1.92
2023-03-08T14:21:06.129Z,2.02
2023-03-08T14:31:39.059Z,2.20
2023-03-08T14:36:49.612Z,2.01
2023-03-08T14:41:52.614Z,1.94
2023-03-08T14:46:59.598Z,1.94
2023-03-08T14:52:02.857Z,1.96
2023-03-08T14:57:18.993Z,2.02
2023-03-08T15:02:23.302Z,1.94
2023-03-08T15:07:35.382Z,1.80
2023-03-08T15:12:38.168Z,1.92
2023-03-08T15:17:42.405Z,1.88
2023-03-08T15:22:48.210Z,1.86
2023-03-08T15:27:51.000Z,1.79
2023-03-08T15:32:57.934Z,1.79
2023-03-08T15:38:02.225Z,1.60
2023-03-08T15:43:05.017Z,1.57
2023-03-08T15:48:13.655Z,1.52
2023-03-08T15:53:29.383Z,1.56
2023-03-08T15:58:37.278Z,1.56
2023-03-08T16:03:41.842Z,1.41
2023-03-08T16:08:44.587Z,1.17
2023-03-08T16:13:49.526Z,1.01
2023-03-08T16:18:53.634Z,0.83
2023-03-08T16:23:57.400Z,0.77
2023-03-08T16:29:00.151Z,0.76
2023-03-08T16:34:05.467Z,0.72
2023-03-08T16:39:09.264Z,0.71
2023-03-08T16:44:20.206Z,0.73
2023-03-08T16:49:28.246Z,0.68
2023-03-08T16:54:31.035Z,0.65
2023-03-08T16:59:33.809Z,0.64
2023-03-08T17:04:37.936Z,0.60
2023-03-08T17:09:40.932Z,0.56
2023-03-08T17:14:44.593Z,0.55
2023-03-08T17:19:52.640Z,0.52
2023-03-08T17:24:55.604Z,0.57
2023-03-08T17:30:00.649Z,0.61
2023-03-08T17:35:05.417Z,0.66
2023-03-08T17:40:10.533Z,0.65
2023-03-08T17:45:14.060Z,0.66
2023-03-08T17:50:18.399Z,0.56
2023-03-08T17:55:21.218Z,0.39
2023-03-08T18:00:24.645Z,0.51
2023-03-08T18:05:29.122Z,0.51
2023-03-08T18:10:31.888Z,0.52
2023-03-08T18:15:34.696Z,0.50
2023-03-08T18:20:38.973Z,0.46
2023-03-08T18:25:41.839Z,0.37
2023-03-08T18:30:44.680Z,0.42
2023-03-08T18:35:56.889Z,0.43
2023-03-08T18:40:59.652Z,0.46
2023-03-08T18:46:02.410Z,0.45
2023-03-08T18:51:07.111Z,0.49
2023-03-08T18:56:10.533Z,0.53
2023-03-08T19:01:15.573Z,0.43
2023-03-08T19:06:19.779Z,0.53
2023-03-08T19:11:24.549Z,0.58
2023-03-08T19:16:29.766Z,0.61
2023-03-08T19:21:35.381Z,0.58
2023-03-08T19:26:40.967Z,0.62
2023-03-08T19:31:45.287Z,0.66
2023-03-08T19:36:49.888Z,0.64
2023-03-08T19:41:54.842Z,0.63
2023-03-08T19:46:58.239Z,0.61
2023-03-08T19:52:05.313Z,0.56
2023-03-08T19:57:08.242Z,0.56
2023-03-08T20:02:13.690Z,0.60
2023-03-08T20:07:21.196Z,0.67
2023-03-08T20:12:23.983Z,0.69
2023-03-08T20:17:27.639Z,0.69
2023-03-08T20:22:31.777Z,0.67
2023-03-08T20:27:35.412Z,0.69
2023-03-08T20:32:39.508Z,0.64
2023-03-08T20:37:43.786Z,0.68
2023-03-08T20:42:46.559Z,0.72
2023-03-08T20:47:49.315Z,0.75
2023-03-08T20:52:53.755Z,0.71
2023-03-08T20:57:56.526Z,0.69
2023-03-08T21:02:59.545Z,0.72
2023-03-08T21:08:04.639Z,0.73
2023-03-08T21:13:07.751Z,0.78
2023-03-08T21:18:10.541Z,0.77
2023-03-08T21:23:16.430Z,0.71
2023-03-08T21:28:19.433Z,0.75
2023-03-08T21:33:22.217Z,0.79
2023-03-08T21:38:26.348Z,0.77
2023-03-08T21:43:29.096Z,0.80
2023-03-08T21:48:32.090Z,0.81
2023-03-08T21:53:36.457Z,0.84
2023-03-08T21:58:39.670Z,0.87
2023-03-08T22:03:42.423Z,0.91
2023-03-08T22:08:47.073Z,0.90
2023-03-08T22:13:51.153Z,0.82
2023-03-08T22:18:54.975Z,0.69
2023-03-08T22:24:00.832Z,0.69
2023-03-08T22:29:03.805Z,0.61
2023-03-08T22:34:07.720Z,0.52
2023-03-08T22:39:12.977Z,0.51
2023-03-08T22:44:16.959Z,0.51
2023-03-08T22:49:19.703Z,0.52
2023-03-08T22:54:24.743Z,0.51
2023-03-08T22:59:27.578Z,0.50
2023-03-08T23:04:30.375Z,0.49
2023-03-08T23:09:35.497Z,0.49
2023-03-08T23:14:38.239Z,0.45
2023-03-08T23:19:44.971Z,0.43
2023-03-08T23:24:49.279Z,0.39
2023-03-08T23:29:52.926Z,0.41
2023-03-08T23:48:12.855Z,0.51
2023-03-08T23:53:15.626Z,0.55
2023-03-08T23:58:18.452Z,0.60
